createdAt,value
2022-12-09T00:02:16.957Z,9.40
2022-12-09T00:04:44.460Z,9.93
2022-12-09T00:07:11.734Z,12.00
2022-12-09T00:09:38.823Z,8.63
2022-12-09T00:12:06.118Z,9.57
2022-12-09T00:14:33.235Z,10.23
2022-12-09T00:17:00.543Z,9.23
2022-12-09T00:19:27.760Z,9.97
2022-12-09T00:21:54.773Z,8.80
2022-12-09T00:24:21.893Z,9.40
2022-12-09T00:26:49.003Z,9.87
2022-12-09T00:29:16.191Z,9.67
2022-12-09T00:31:43.359Z,10.17
2022-12-09T00:34:12.578Z,8.37
2022-12-09T00:36:40.015Z,8.13
2022-12-09T00:39:07.162Z,9.60
2022-12-09T00:41:34.229Z,10.63
2022-12-09T00:44:01.287Z,8.73
2022-12-09T00:46:28.804Z,8.47
2022-12-09T00:48:56.252Z,11.23
2022-12-09T00:51:24.196Z,10.33
2022-12-09T00:53:56.025Z,8.17
2022-12-09T00:56:24.784Z,8.30
2022-12-09T00:58:52.067Z,8.60
2022-12-09T01:01:19.214Z,10.20
2022-12-09T01:03:46.604Z,7.93
2022-12-09T01:06:17.594Z,10.13
2022-12-09T01:08:45.939Z,10.17
2022-12-09T01:11:21.160Z,9.23
2022-12-09T01:13:49.000Z,8.47
2022-12-09T01:16:20.564Z,7.80
2022-12-09T01:18:47.973Z,8.50
2022-12-09T01:21:15.346Z,9.37
2022-12-09T01:23:42.556Z,9.07
2022-12-09T01:26:09.890Z,10.13
2022-12-09T01:28:38.295Z,9.33
2022-12-09T01:31:13.168Z,8.53
2022-12-09T01:33:40.882Z,8.40
2022-12-09T01:36:09.105Z,8.03
2022-12-09T01:38:36.505Z,9.37
2022-12-09T01:41:03.887Z,9.33
2022-12-09T01:43:31.113Z,9.23
2022-12-09T01:45:58.225Z,11.17
2022-12-09T01:48:27.797Z,8.40
2022-12-09T01:50:56.298Z,8.83
2022-12-09T01:53:26.660Z,10.33
2022-12-09T01:55:58.682Z,9.30
2022-12-09T01:58:25.953Z,8.83
2022-12-09T02:00:53.292Z,8.53
2022-12-09T02:03:20.664Z,9.70
2022-12-09T02:05:48.238Z,8.97
2022-12-09T02:08:17.239Z,10.83
2022-12-09T02:11:02.622Z,8.33
2022-12-09T02:13:29.888Z,9.80
2022-12-09T02:16:01.963Z,9.03
2022-12-09T02:18:47.917Z,9.57
2022-12-09T02:21:27.934Z,9.70
2022-12-09T02:24:11.166Z,8.97
2022-12-09T02:26:44.628Z,7.97
2022-12-09T02:29:20.605Z,8.43
2022-12-09T02:31:50.504Z,10.47
2022-12-09T02:34:18.587Z,9.00
2022-12-09T02:36:55.808Z,10.70
2022-12-09T02:39:25.657Z,12.07
2022-12-09T02:41:53.610Z,14.10
2022-12-09T02:44:22.573Z,9.10
2022-12-09T02:46:50.517Z,9.30
2022-12-09T02:49:18.281Z,9.20
2022-12-09T02:51:45.860Z,7.93
2022-12-09T02:54:14.946Z,10.43
2022-12-09T02:56:44.231Z,9.90
2022-12-09T02:59:11.359Z,10.17
2022-12-09T03:01:45.692Z,14.10
2022-12-09T03:04:18.818Z,12.03
2022-12-09T03:06:49.909Z,10.33
2022-12-09T03:09:21.629Z,9.27
2022-12-09T03:11:49.088Z,9.30
2022-12-09T03:14:32.327Z,10.40
2022-12-09T03:17:18.410Z,9.77
2022-12-09T03:19:48.998Z,10.30
2022-12-09T03:22:17.937Z,8.63
2022-12-09T03:24:47.992Z,10.67
2022-12-09T03:27:17.568Z,9.03
2022-12-09T03:29:47.727Z,10.20
2022-12-09T03:32:15.466Z,10.57
2022-12-09T03:34:43.730Z,12.10
2022-12-09T03:37:11.519Z,9.93
2022-12-09T03:39:39.608Z,8.57
2022-12-09T03:42:10.998Z,9.70
2022-12-09T03:44:41.458Z,8.63
2022-12-09T03:47:09.841Z,8.57
2022-12-09T03:49:38.408Z,9.70
2022-12-09T03:52:11.266Z,9.93
2022-12-09T03:54:44.604Z,11.30
2022-12-09T03:57:19.022Z,9.23
2022-12-09T03:59:51.995Z,10.00
2022-12-09T04:02:19.752Z,10.47
2022-12-09T04:04:47.465Z,9.27
2022-12-09T04:07:14.635Z,10.40
2022-12-09T04:09:42.215Z,9.80
2022-12-09T04:12:10.032Z,9.73
2022-12-09T04:14:37.349Z,10.60
2022-12-09T04:17:04.872Z,8.23
2022-12-09T04:19:32.094Z,8.77
2022-12-09T04:21:59.537Z,10.90
2022-12-09T04:24:26.818Z,10.83
2022-12-09T04:26:53.960Z,10.47
2022-12-09T04:29:21.219Z,9.50
2022-12-09T04:31:48.802Z,8.90
2022-12-09T04:34:16.243Z,10.33
2022-12-09T04:36:43.701Z,8.60
2022-12-09T04:39:10.827Z,7.93
2022-12-09T04:41:38.271Z,13.20
2022-12-09T04:44:05.920Z,9.57
2022-12-09T04:46:33.220Z,10.33
2022-12-09T04:49:00.640Z,6.40
2022-12-09T04:51:28.043Z,8.33
2022-12-09T04:53:55.913Z,9.93
2022-12-09T04:56:23.095Z,6.63
2022-12-09T04:58:50.777Z,7.87
2022-12-09T05:01:21.607Z,7.83
2022-12-09T05:03:53.251Z,9.13
2022-12-09T05:06:21.395Z,7.93
2022-12-09T05:08:49.185Z,7.47
2022-12-09T05:11:17.188Z,7.70
2022-12-09T05:13:44.915Z,8.77
2022-12-09T05:16:16.397Z,8.13
2022-12-09T05:18:45.047Z,7.93
2022-12-09T05:21:14.973Z,8.17
2022-12-09T05:23:42.533Z,8.43
2022-12-09T05:26:16.013Z,8.13
2022-12-09T05:28:43.175Z,7.03
2022-12-09T05:31:12.358Z,7.83
2022-12-09T05:33:39.727Z,6.67
2022-12-09T05:36:09.934Z,9.10
2022-12-09T05:38:37.607Z,8.50
2022-12-09T05:41:05.335Z,10.37
2022-12-09T05:43:33.421Z,11.30
2022-12-09T05:46:02.001Z,8.90
2022-12-09T05:48:29.554Z,8.37
2022-12-09T05:51:00.693Z,7.80
2022-12-09T05:53:28.492Z,8.97
2022-12-09T05:55:55.744Z,8.70
2022-12-09T05:58:22.941Z,8.40
2022-12-09T06:00:50.214Z,7.47
2022-12-09T06:03:17.933Z,12.43
2022-12-09T06:05:45.445Z,8.33
2022-12-09T06:08:13.388Z,8.13
2022-12-09T06:10:41.563Z,8.37
2022-12-09T06:13:09.336Z,9.10
2022-12-09T06:15:36.838Z,10.30
2022-12-09T06:18:04.400Z,10.23
2022-12-09T06:20:32.037Z,8.17
2022-12-09T06:22:59.493Z,7.97
2022-12-09T06:25:26.732Z,7.97
2022-12-09T06:27:54.096Z,8.90
2022-12-09T06:30:21.685Z,9.07
2022-12-09T06:32:49.172Z,7.80
2022-12-09T06:35:17.019Z,7.47
2022-12-09T06:37:44.488Z,7.07
2022-12-09T06:40:12.439Z,6.63
2022-12-09T06:42:39.608Z,8.50
2022-12-09T06:45:07.842Z,7.77
2022-12-09T06:47:35.297Z,9.50
2022-12-09T06:50:06.963Z,8.97
2022-12-09T06:52:35.321Z,8.23
2022-12-09T06:55:03.088Z,9.70
2022-12-09T06:57:30.631Z,9.90
2022-12-09T06:59:58.156Z,9.43
2022-12-09T07:02:25.735Z,11.30
2022-12-09T07:04:55.424Z,14.40
2022-12-09T07:07:23.947Z,12.27
2022-12-09T07:09:51.299Z,12.93
2022-12-09T07:12:18.614Z,11.00
2022-12-09T07:14:46.293Z,16.10
2022-12-09T07:17:20.165Z,8.97
2022-12-09T07:19:48.263Z,12.07
2022-12-09T07:22:15.945Z,9.20
2022-12-09T07:24:43.922Z,10.80
2022-12-09T07:27:19.275Z,9.27
2022-12-09T07:29:47.071Z,9.23
2022-12-09T07:32:14.875Z,9.50
2022-12-09T07:34:43.069Z,12.77
2022-12-09T07:37:10.833Z,12.13
2022-12-09T07:39:38.252Z,9.10
2022-12-09T07:42:05.930Z,10.80
2022-12-09T07:44:33.160Z,10.47
2022-12-09T07:47:00.492Z,18.50
2022-12-09T07:49:28.280Z,11.33
2022-12-09T07:51:55.601Z,11.70
2022-12-09T07:54:22.683Z,12.47
2022-12-09T07:56:50.027Z,21.23
2022-12-09T07:59:17.783Z,10.57
2022-12-09T08:01:45.397Z,13.77
2022-12-09T08:04:14.288Z,11.27
2022-12-09T08:06:41.872Z,11.03
2022-12-09T08:09:11.590Z,11.63
2022-12-09T08:11:39.594Z,14.73
2022-12-09T08:14:12.365Z,11.93
2022-12-09T08:16:40.632Z,10.83
2022-12-09T08:19:08.531Z,10.80
2022-12-09T08:21:36.173Z,13.00
2022-12-09T08:24:05.967Z,12.07
2022-12-09T08:26:34.248Z,11.87
2022-12-09T08:29:01.958Z,13.27
2022-12-09T08:31:30.293Z,11.47
2022-12-09T08:33:58.764Z,11.50
2022-12-09T08:36:27.340Z,13.57
2022-12-09T08:38:55.404Z,14.37
2022-12-09T08:41:35.433Z,12.13
2022-12-09T08:44:12.266Z,16.23
2022-12-09T08:46:41.211Z,13.60
2022-12-09T08:49:09.310Z,14.17
2022-12-09T08:51:36.854Z,17.93
2022-12-09T08:54:05.246Z,19.13
2022-12-09T08:56:33.561Z,12.50
2022-12-09T08:59:00.855Z,11.33
2022-12-09T09:01:32.798Z,12.33
2022-12-09T09:04:05.151Z,13.03
2022-12-09T09:06:32.724Z,13.83
2022-12-09T09:09:00.376Z,13.37
2022-12-09T09:11:28.138Z,12.43
2022-12-09T09:13:56.191Z,12.70
2022-12-09T09:16:24.795Z,11.33
2022-12-09T09:18:52.535Z,12.33
2022-12-09T09:21:21.767Z,13.10
2022-12-09T09:23:49.465Z,14.47
2022-12-09T09:26:18.564Z,12.03
2022-12-09T09:28:46.590Z,15.97
2022-12-09T09:31:18.411Z,11.00
2022-12-09T09:33:46.125Z,12.37
2022-12-09T09:36:14.984Z,13.00
2022-12-09T09:38:42.557Z,14.50
2022-12-09T09:41:28.655Z,13.80
2022-12-09T09:43:56.317Z,12.20
2022-12-09T09:46:36.051Z,14.03
2022-12-09T09:49:04.900Z,14.63
2022-12-09T09:51:34.355Z,14.10
2022-12-09T09:54:06.878Z,15.33
2022-12-09T09:56:41.119Z,17.13
2022-12-09T09:59:11.841Z,13.10
2022-12-09T10:01:39.542Z,17.60
2022-12-09T10:04:13.125Z,13.53
2022-12-09T10:06:46.785Z,14.80
2022-12-09T10:09:33.146Z,15.87
2022-12-09T10:12:18.933Z,12.33
2022-12-09T10:14:46.739Z,15.53
2022-12-09T10:17:32.341Z,19.30
2022-12-09T10:20:15.982Z,15.77
2022-12-09T10:23:02.027Z,17.77
2022-12-09T10:25:33.909Z,15.37
2022-12-09T10:28:12.916Z,17.97
2022-12-09T10:30:44.109Z,19.50
2022-12-09T10:33:15.854Z,20.37
2022-12-09T10:35:43.370Z,16.97
2022-12-09T10:38:15.580Z,14.93
2022-12-09T10:40:49.978Z,16.10
2022-12-09T10:43:44.182Z,15.70
2022-12-09T10:46:21.519Z,16.90
2022-12-09T10:48:49.715Z,15.53
2022-12-09T10:51:17.696Z,16.73
2022-12-09T10:53:51.817Z,15.40
2022-12-09T10:56:21.838Z,18.10
2022-12-09T10:58:49.446Z,24.57
2022-12-09T11:01:17.488Z,20.40
2022-12-09T11:03:47.621Z,13.80
2022-12-09T11:06:21.725Z,17.77
2022-12-09T11:08:56.786Z,17.30
2022-12-09T11:11:42.918Z,18.47
2022-12-09T11:14:22.582Z,17.07
2022-12-09T11:16:52.824Z,15.43
2022-12-09T11:19:29.333Z,15.63
2022-12-09T11:22:13.638Z,15.07
2022-12-09T11:24:41.586Z,16.60
2022-12-09T11:27:28.075Z,17.27
2022-12-09T11:30:11.190Z,15.37
2022-12-09T11:32:52.245Z,15.83
2022-12-09T11:35:21.403Z,14.63
2022-12-09T11:37:48.685Z,15.97
2022-12-09T11:40:17.590Z,15.83
2022-12-09T11:42:49.663Z,15.17
2022-12-09T11:45:36.536Z,16.73
2022-12-09T11:48:32.566Z,15.03
2022-12-09T11:51:01.989Z,15.80
2022-12-09T11:53:33.610Z,17.20
2022-12-09T11:56:21.594Z,16.67
2022-12-09T11:58:51.039Z,15.23
2022-12-09T12:01:31.815Z,16.20
2022-12-09T12:04:05.839Z,14.73
2022-12-09T12:06:43.337Z,18.07
2022-12-09T12:09:20.076Z,14.60
2022-12-09T12:12:01.758Z,16.53
2022-12-09T12:14:30.202Z,17.10
2022-12-09T12:17:16.034Z,15.10
2022-12-09T12:19:44.125Z,17.77
2022-12-09T12:22:11.155Z,16.43
2022-12-09T12:24:38.233Z,14.90
2022-12-09T12:27:14.933Z,13.93
2022-12-09T12:29:42.042Z,15.80
2022-12-09T12:32:22.869Z,16.37
2022-12-09T12:34:49.939Z,14.90
2022-12-09T12:37:26.825Z,17.47
2022-12-09T12:39:59.830Z,12.97
2022-12-09T12:42:29.660Z,12.77
2022-12-09T12:45:33.630Z,14.37
2022-12-09T12:48:12.796Z,14.53
2022-12-09T12:50:49.899Z,16.97
2022-12-09T12:53:37.353Z,19.07
2022-12-09T12:56:16.269Z,13.07
2022-12-09T12:58:49.152Z,17.73
2022-12-09T13:01:16.317Z,14.50
2022-12-09T13:03:46.431Z,20.23
2022-12-09T13:06:15.215Z,17.57
2022-12-09T13:08:48.883Z,16.93
2022-12-09T13:11:31.358Z,18.17
2022-12-09T13:14:00.828Z,12.77
2022-12-09T13:16:30.122Z,15.73
2022-12-09T13:19:05.918Z,20.27
2022-12-09T13:21:33.256Z,16.13
2022-12-09T13:24:00.308Z,12.40
2022-12-09T13:26:43.814Z,12.60
2022-12-09T13:29:10.890Z,13.20
2022-12-09T13:31:42.673Z,13.47
2022-12-09T13:34:15.524Z,11.80
2022-12-09T13:36:45.582Z,14.57
2022-12-09T13:39:13.688Z,14.40
2022-12-09T13:42:00.746Z,11.40
2022-12-09T13:44:31.337Z,13.43
2022-12-09T13:47:16.906Z,14.27
2022-12-09T13:49:52.375Z,10.60
2022-12-09T13:52:39.352Z,12.33
2022-12-09T13:55:18.000Z,10.43
2022-12-09T13:57:54.167Z,13.87
2022-12-09T14:00:21.270Z,13.13
2022-12-09T14:03:12.196Z,10.43
2022-12-09T14:05:39.766Z,11.87
2022-12-09T14:08:27.080Z,15.43
2022-12-09T14:10:54.310Z,11.27
2022-12-09T14:13:24.513Z,11.67
2022-12-09T14:16:06.719Z,14.07
2022-12-09T14:18:34.072Z,14.87
2022-12-09T14:21:19.261Z,16.73
2022-12-09T14:24:04.927Z,12.77
2022-12-09T14:26:39.398Z,11.90
2022-12-09T14:29:06.654Z,14.67
2022-12-09T14:31:44.317Z,11.50
2022-12-09T14:34:28.934Z,12.57
2022-12-09T14:37:16.224Z,13.40
2022-12-09T14:39:49.963Z,12.03
2022-12-09T14:42:29.361Z,11.03
2022-12-09T14:45:15.201Z,11.43
2022-12-09T14:47:44.481Z,14.13
2022-12-09T14:50:19.467Z,14.33
2022-12-09T14:52:51.302Z,8.83
2022-12-09T14:55:18.903Z,13.70
2022-12-09T14:57:47.170Z,13.40
2022-12-09T15:00:31.825Z,11.57
2022-12-09T15:03:31.474Z,12.77
2022-12-09T15:06:03.151Z,14.07
2022-12-09T15:08:37.530Z,11.77
2022-12-09T15:11:10.046Z,12.07
2022-12-09T15:13:41.901Z,13.50
2022-12-09T15:16:10.132Z,12.50
2022-12-09T15:18:38.362Z,12.60
2022-12-09T15:21:05.509Z,12.67
2022-12-09T15:23:34.537Z,12.93
2022-12-09T15:26:03.866Z,14.00
2022-12-09T15:28:31.915Z,12.97
2022-12-09T15:31:00.212Z,14.93
2022-12-09T15:33:28.088Z,20.07
2022-12-09T15:36:01.529Z,14.33
2022-12-09T15:38:37.375Z,14.10
2022-12-09T15:41:27.339Z,13.50
2022-12-09T15:43:59.667Z,13.33
2022-12-09T15:46:27.238Z,11.50
2022-12-09T15:48:57.465Z,13.93
2022-12-09T15:51:26.373Z,13.50
2022-12-09T15:53:58.561Z,14.00
2022-12-09T15:56:28.391Z,15.37
2022-12-09T15:58:58.454Z,16.90
2022-12-09T16:01:27.110Z,13.70
2022-12-09T16:03:55.240Z,13.07
2022-12-09T16:06:30.116Z,16.57
2022-12-09T16:08:57.382Z,13.33
2022-12-09T16:11:39.828Z,12.40
2022-12-09T16:14:07.511Z,13.70
2022-12-09T16:16:34.640Z,13.53
2022-12-09T16:19:01.788Z,14.27
2022-12-09T16:21:29.949Z,14.13
2022-12-09T16:23:57.919Z,16.27
2022-12-09T16:26:30.491Z,14.50
2022-12-09T16:28:58.765Z,13.43
2022-12-09T16:31:26.043Z,14.87
2022-12-09T16:33:53.586Z,17.47
2022-12-09T16:36:28.666Z,13.90
2022-12-09T16:39:01.930Z,14.20
2022-12-09T16:41:48.956Z,14.23
2022-12-09T16:44:19.216Z,13.23
2022-12-09T16:46:46.296Z,14.13
2022-12-09T16:49:13.445Z,14.50
2022-12-09T16:51:40.770Z,14.77
2022-12-09T16:54:20.231Z,15.83
2022-12-09T16:56:48.171Z,14.63
2022-12-09T16:59:15.254Z,15.07
2022-12-09T17:01:42.855Z,17.63
2022-12-09T17:04:14.498Z,21.50
2022-12-09T17:06:41.663Z,15.33
2022-12-09T17:09:08.838Z,17.87
2022-12-09T17:11:36.037Z,14.73
2022-12-09T17:14:03.130Z,14.57
2022-12-09T17:16:30.347Z,16.10
2022-12-09T17:18:57.473Z,13.57
2022-12-09T17:21:24.536Z,14.23
2022-12-09T17:23:51.582Z,13.90
2022-12-09T17:26:20.230Z,17.40
2022-12-09T17:28:48.047Z,14.50
2022-12-09T17:31:16.634Z,14.57
2022-12-09T17:33:43.819Z,15.60
2022-12-09T17:36:11.864Z,16.50
2022-12-09T17:38:38.939Z,14.87
2022-12-09T17:41:07.427Z,13.37
2022-12-09T17:43:34.928Z,13.77
2022-12-09T17:46:02.992Z,16.47
2022-12-09T17:48:30.708Z,14.03
2022-12-09T17:50:57.788Z,15.00
2022-12-09T17:53:24.917Z,14.07
2022-12-09T17:55:51.949Z,13.90
2022-12-09T17:58:19.052Z,15.30
2022-12-09T18:00:47.763Z,17.97
2022-12-09T18:03:27.455Z,13.30
2022-12-09T18:06:00.388Z,14.03
2022-12-09T18:08:29.726Z,13.93
2022-12-09T18:10:57.140Z,14.43
2022-12-09T18:13:24.238Z,15.93
2022-12-09T18:15:54.405Z,15.73
2022-12-09T18:18:21.918Z,15.50
2022-12-09T18:20:48.974Z,14.37
2022-12-09T18:23:16.225Z,14.63
2022-12-09T18:25:43.366Z,14.63
2022-12-09T18:28:10.551Z,17.37
2022-12-09T18:30:39.587Z,14.77
2022-12-09T18:33:08.070Z,15.10
2022-12-09T18:35:35.251Z,18.03
2022-12-09T18:38:09.645Z,20.07
2022-12-09T18:41:00.207Z,14.77
2022-12-09T18:43:38.057Z,13.73
2022-12-09T18:46:07.037Z,13.83
2022-12-09T18:48:34.171Z,13.43
2022-12-09T18:51:01.275Z,13.80
2022-12-09T18:53:28.412Z,15.10
2022-12-09T18:55:55.502Z,12.43
2022-12-09T18:58:42.539Z,13.80
2022-12-09T19:01:39.213Z,15.70
2022-12-09T19:04:07.477Z,12.07
2022-12-09T19:06:38.446Z,16.10
2022-12-09T19:09:07.229Z,15.10
2022-12-09T19:11:36.278Z,14.33
2022-12-09T19:14:04.447Z,17.13
2022-12-09T19:16:31.539Z,16.93
2022-12-09T19:19:02.463Z,16.97
2022-12-09T19:21:32.774Z,19.17
2022-12-09T19:24:00.404Z,17.67
2022-12-09T19:26:29.250Z,15.00
2022-12-09T19:29:00.596Z,13.43
2022-12-09T19:31:27.667Z,16.37
2022-12-09T19:34:05.882Z,16.73
2022-12-09T19:36:35.845Z,12.53
2022-12-09T19:39:03.973Z,12.67
2022-12-09T19:41:31.032Z,14.60
2022-12-09T19:43:58.872Z,19.07
2022-12-09T19:46:26.731Z,17.07
2022-12-09T19:48:54.409Z,16.13
2022-12-09T19:51:22.200Z,13.30
2022-12-09T19:53:49.753Z,15.27
2022-12-09T19:56:19.710Z,16.17
2022-12-09T19:58:47.219Z,13.47
2022-12-09T20:01:20.208Z,15.63
2022-12-09T20:03:48.111Z,15.70
2022-12-09T20:06:16.359Z,12.67
2022-12-09T20:08:43.949Z,14.77
2022-12-09T20:11:15.448Z,14.00
2022-12-09T20:13:42.967Z,14.27
2022-12-09T20:16:11.151Z,15.27
2022-12-09T20:18:38.683Z,17.80
2022-12-09T20:21:06.758Z,13.47
2022-12-09T20:23:34.998Z,15.07
2022-12-09T20:26:09.365Z,15.40
2022-12-09T20:28:37.179Z,14.57
2022-12-09T20:31:05.484Z,15.40
2022-12-09T20:33:32.617Z,13.63
2022-12-09T20:36:25.827Z,13.37
2022-12-09T20:38:53.854Z,16.03
2022-12-09T20:41:21.462Z,11.70
2022-12-09T20:43:49.332Z,12.03
2022-12-09T20:46:21.155Z,13.00
2022-12-09T20:48:48.704Z,15.43
2022-12-09T20:51:17.273Z,20.90
2022-12-09T20:53:45.392Z,18.20
2022-12-09T20:56:12.759Z,15.60
2022-12-09T20:58:40.673Z,16.90
2022-12-09T21:01:10.781Z,18.97
2022-12-09T21:03:37.878Z,19.70
2022-12-09T21:06:05.705Z,18.70
2022-12-09T21:08:32.918Z,18.20
2022-12-09T21:11:04.259Z,18.73
2022-12-09T21:13:31.538Z,16.43
2022-12-09T21:16:05.952Z,17.90
2022-12-09T21:18:33.610Z,17.03
2022-12-09T21:21:00.695Z,20.43
2022-12-09T21:23:35.161Z,17.17
2022-12-09T21:26:09.439Z,23.53
2022-12-09T21:28:37.287Z,24.37
2022-12-09T21:31:08.503Z,20.33
2022-12-09T21:33:35.917Z,24.97
2022-12-09T21:36:05.633Z,26.53
2022-12-09T21:38:32.698Z,16.70
2022-12-09T21:41:03.851Z,24.57
2022-12-09T21:43:32.148Z,21.77
2022-12-09T21:46:02.366Z,26.60
2022-12-09T21:48:29.541Z,25.23
2022-12-09T21:50:57.085Z,30.67
2022-12-09T21:53:24.241Z,30.57
2022-12-09T21:55:51.453Z,26.37
2022-12-09T21:58:18.697Z,26.60
2022-12-09T22:00:45.814Z,26.23
2022-12-09T22:03:13.195Z,26.57
2022-12-09T22:05:40.285Z,24.07
2022-12-09T22:08:07.465Z,26.93
2022-12-09T22:10:37.104Z,23.67
2022-12-09T22:13:04.343Z,26.10
2022-12-09T22:15:32.050Z,29.07
2022-12-09T22:17:59.171Z,25.13
2022-12-09T22:23:13.461Z,28.13
2022-12-09T22:25:40.512Z,33.63
2022-12-09T22:28:07.628Z,29.63
2022-12-09T22:30:36.465Z,28.97
2022-12-09T22:33:03.586Z,36.10
2022-12-09T22:35:30.653Z,29.20
2022-12-09T22:37:59.348Z,32.73
2022-12-09T22:40:26.741Z,27.77
2022-12-09T22:42:53.814Z,34.37
2022-12-09T22:45:20.880Z,29.87
2022-12-09T22:47:48.369Z,28.90
2022-12-09T22:50:15.427Z,28.43
2022-12-09T22:52:42.491Z,29.67
2022-12-09T22:55:09.863Z,35.60
2022-12-09T22:57:36.913Z,29.67
2022-12-09T23:00:11.379Z,32.30
2022-12-09T23:02:39.296Z,34.30
2022-12-09T23:05:07.756Z,31.83
2022-12-09T23:07:35.288Z,33.57
2022-12-09T23:10:02.519Z,27.27
2022-12-09T23:12:29.571Z,32.33
2022-12-09T23:14:56.673Z,28.43
2022-12-09T23:17:23.746Z,29.13
2022-12-09T23:19:50.814Z,29.33
2022-12-09T23:22:18.207Z,26.77
2022-12-09T23:24:45.318Z,36.33
2022-12-09T23:27:12.355Z,24.00
2022-12-09T23:29:39.523Z,28.07
2022-12-09T23:32:06.579Z,31.93
2022-12-09T23:34:33.630Z,22.67
2022-12-09T23:37:00.791Z,30.47
2022-12-09T23:39:27.906Z,30.30
2022-12-09T23:41:55.132Z,30.83
2022-12-09T23:44:22.228Z,31.63
2022-12-09T23:46:49.372Z,32.07
2022-12-09T23:49:16.530Z,26.13
2022-12-09T23:51:44.141Z,32.63
2022-12-09T23:54:11.811Z,30.57
2022-12-09T23:56:40.336Z,28.67
2022-12-09T23:59:09.029Z,24.23
